Weather at Stayner (Clearview Field) Airport

Public forecast

Using degrees Celsius for public forecast. Weather courtesy of forecast.io.

Closest aviation weather report (METAR) to Stayner (Clearview Field) Airport

Closest report is CFB Borden, 12.9 nm (23.9 km) SE. Retrieved 2020/09/29 13:00 UTC (38 minutes ago):

CYBN 291300Z AUTO 21008KT 170V230 9SM FEW023 14/12 A2978 RMK SLP083

Closest aviation forecast (TAF) to Stayner (Clearview Field) Airport

Closest forecast is CFB Borden, 12.9 nm (23.9 km) SE. Retrieved 2020/09/29 12:33 UTC (1 hour ago):

TAF TAF CYBN 291130Z 2912/2924 21005KT P6SM SCT020 TEMPO 2912/2916 BKN020 BECMG 2914/2916 25008KT FM291600 25008G18KT P6SM SCT040 BECMG 2919/2921 SCT040 BKN200 RMK FCST BASED ON AUTO OBS NXT FCST BY 291800Z